Time;durP1;ratioP1;P1;durP2;ratioP2;P2;SDS_P1;SDS_P2;PMS_P1;PMS_P2;Temp;Humidity;BMP_temperature;BMP_pressure;BME280_temperature;BME280_humidity;BME280_pressure;Samples;Min_cycle;Max_cycle;Signal;HPM_P1;HPM_P2
2021/01/18 00:01:39;;;;;;;;;;;1.70;99.90;;;;;;5157486;22;19930;-87
2021/01/18 00:04:05;;;;;;;;;;;1.60;99.90;;;;;;5076613;28;20000;-86
2021/01/18 00:06:34;;;;;;;;;;;1.60;99.90;;;;;;5084674;28;19931;-86
2021/01/18 00:09:00;;;;;;;;;;;1.70;99.90;;;;;;5096996;28;19908;-85
2021/01/18 00:11:25;;;;;;;;;;;1.60;99.90;;;;;;5089832;28;20369;-86
2021/01/18 00:13:51;;;;;;;;;;;1.70;99.90;;;;;;5089485;28;19908;-85
2021/01/18 00:16:18;;;;;;;;;;;1.60;99.90;;;;;;5058515;28;19909;-85
2021/01/18 00:18:43;;;;;;;;;;;1.70;99.90;;;;;;5079136;28;19916;-87
2021/01/18 00:21:09;;;;;;;;;;;1.60;99.90;;;;;;5079618;28;19909;-85
2021/01/18 00:23:38;;;;;;;;;;;1.60;99.90;;;;;;5077324;28;19966;-85
2021/01/18 00:26:04;;;;;;;;;;;1.60;99.90;;;;;;5091132;28;19909;-86
2021/01/18 00:28:32;;;;;;;;;;;1.60;99.90;;;;;;5089116;28;19958;-87
2021/01/18 00:31:01;;;;;;;;;;;1.60;99.90;;;;;;5075465;28;19908;-86
2021/01/18 00:33:26;;;;;;;;;;;1.60;99.90;;;;;;5096088;28;19909;-87
2021/01/18 00:35:52;;;;;;;;;;;1.60;99.90;;;;;;5085303;28;19930;-86
2021/01/18 00:38:18;;;;;;;;;;;1.70;99.90;;;;;;5094020;28;20355;-86
2021/01/18 00:40:43;;;;;;;;;;;1.70;99.90;;;;;;5095891;28;20403;-88
2021/01/18 00:43:09;;;;;;;;;;;1.70;99.90;;;;;;5093905;28;19977;-85
2021/01/18 00:45:36;;;;;;;;;;;1.70;99.90;;;;;;5083304;28;19909;-86
2021/01/18 00:48:02;;;;;;;;;;;1.60;99.90;;;;;;5095937;28;19908;-85
2021/01/18 00:50:30;;;;;;;;;;;1.60;99.90;;;;;;5055658;28;19915;-87
2021/01/18 00:53:00;;;;;;;;;;;1.60;99.90;;;;;;5068290;28;19947;-86
2021/01/18 00:55:26;;;;;;;;;;;1.60;99.90;;;;;;5081482;28;19955;-89
2021/01/18 00:57:52;;;;;;;;;;;1.60;99.90;;;;;;5088525;28;20015;-86
2021/01/18 01:00:20;;;;;;;;;;;1.60;99.90;;;;;;5088677;28;20359;-86
2021/01/18 01:02:47;;;;;;;;;;;1.60;99.90;;;;;;5089828;28;19927;-86
2021/01/18 01:05:16;;;;;;;;;;;1.70;99.90;;;;;;5193818;22;19923;-86
2021/01/18 01:07:43;;;;;;;;;;;1.60;99.90;;;;;;5193684;22;20328;-88
2021/01/18 01:10:10;;;;;;;;;;;1.70;99.90;;;;;;5058651;28;19909;-87
2021/01/18 01:12:36;;;;;;;;;;;1.60;99.90;;;;;;5070832;28;19962;-87
2021/01/18 01:15:02;;;;;;;;;;;1.60;99.90;;;;;;5070373;28;19973;-88
2021/01/18 01:17:27;;;;;;;;;;;1.70;99.90;;;;;;5072440;28;19912;-87
2021/01/18 01:19:53;;;;;;;;;;;1.60;99.90;;;;;;5078745;28;19938;-87
2021/01/18 01:22:21;;;;;;;;;;;1.60;99.90;;;;;;5164880;22;20020;-85
2021/01/18 01:27:17;;;;;;;;;;;1.70;99.90;;;;;;5043328;28;19933;-86
2021/01/18 01:29:45;;;;;;;;;;;1.70;99.90;;;;;;5035637;28;19909;-86
2021/01/18 01:32:10;;;;;;;;;;;1.70;99.90;;;;;;5038150;28;20055;-87
2021/01/18 01:34:36;;;;;;;;;;;1.70;99.90;;;;;;5043027;28;19944;-85
2021/01/18 01:37:01;;;;;;;;;;;1.60;99.90;;;;;;5294578;22;19924;-85
2021/01/18 01:39:27;;;;;;;;;;;1.60;99.90;;;;;;5058957;28;19920;-86
2021/01/18 01:41:55;;;;;;;;;;;1.70;99.90;;;;;;5076419;28;19965;-86
2021/01/18 01:44:20;;;;;;;;;;;1.70;99.90;;;;;;5058624;28;19909;-87
2021/01/18 01:46:46;;;;;;;;;;;1.70;99.90;;;;;;5058354;28;19913;-86
2021/01/18 01:49:11;;;;;;;;;;;1.70;99.90;;;;;;5058438;28;19931;-87
2021/01/18 01:51:37;;;;;;;;;;;1.70;99.90;;;;;;5076489;28;19908;-88
2021/01/18 01:54:05;;;;;;;;;;;1.70;99.90;;;;;;5058344;28;19955;-86
2021/01/18 01:56:35;;;;;;;;;;;1.70;99.90;;;;;;5058359;28;19931;-87
2021/01/18 01:59:03;;;;;;;;;;;1.70;99.90;;;;;;5058420;28;19913;-86
2021/01/18 02:01:29;;;;;;;;;;;1.70;99.90;;;;;;5057496;28;19913;-85
2021/01/18 02:03:56;;;;;;;;;;;1.70;99.90;;;;;;5058053;28;19909;-87
2021/01/18 02:06:22;;;;;;;;;;;1.70;99.90;;;;;;5057989;28;19916;-86
2021/01/18 02:08:47;;;;;;;;;;;1.70;99.90;;;;;;5075761;28;19909;-86
2021/01/18 02:11:15;;;;;;;;;;;1.70;99.90;;;;;;5043863;28;19909;-85
2021/01/18 02:13:53;;;;;;;;;;;1.70;99.90;;;;;;5057920;28;19966;-86
2021/01/18 02:16:41;;;;;;;;;;;1.70;99.90;;;;;;5056098;28;19986;-88
2021/01/18 02:21:48;;;;;;;;;;;1.70;99.90;;;;;;5262068;22;19970;-87
2021/01/18 02:24:27;;;;;;;;;;;1.80;99.90;;;;;;5037297;28;19913;-91
2021/01/18 02:27:11;;;;;;;;;;;1.80;99.90;;;;;;5037232;28;19940;-87
2021/01/18 02:29:37;;;;;;;;;;;1.70;99.90;;;;;;5037452;28;20329;-86
2021/01/18 02:32:21;;;;;;;;;;;1.80;99.90;;;;;;5037187;28;19916;-87
2021/01/18 02:35:08;;;;;;;;;;;1.70;99.90;;;;;;5145010;23;19980;-89
2021/01/18 02:37:48;;;;;;;;;;;1.70;99.90;;;;;;5037350;28;19963;-89
2021/01/18 02:40:23;;;;;;;;;;;1.70;99.90;;;;;;5037179;28;19948;-86
2021/01/18 02:42:54;;;;;;;;;;;1.70;99.90;;;;;;5054493;28;19909;-86
2021/01/18 02:47:55;;;;;;;;;;;1.70;99.90;;;;;;5042669;22;19925;-87
2021/01/18 02:50:21;;;;;;;;;;;1.70;99.90;;;;;;5036009;28;19923;-87
2021/01/18 02:52:47;;;;;;;;;;;1.70;99.90;;;;;;5036628;28;19942;-86
2021/01/18 02:55:16;;;;;;;;;;;1.70;99.90;;;;;;5023872;28;20340;-86
2021/01/18 02:57:43;;;;;;;;;;;1.70;99.90;;;;;;5034200;28;19916;-88
2021/01/18 03:00:11;;;;;;;;;;;1.70;99.90;;;;;;5036751;28;19945;-86
2021/01/18 03:02:43;;;;;;;;;;;1.70;99.90;;;;;;5036219;28;20359;-86
2021/01/18 03:05:13;;;;;;;;;;;1.70;99.90;;;;;;5036819;28;19909;-86
2021/01/18 03:07:58;;;;;;;;;;;1.70;99.90;;;;;;5036272;28;19916;-86
2021/01/18 03:10:27;;;;;;;;;;;1.70;99.90;;;;;;5036857;28;19913;-86
2021/01/18 03:12:57;;;;;;;;;;;1.70;99.90;;;;;;5036272;28;19916;-86
2021/01/18 03:15:25;;;;;;;;;;;1.70;99.90;;;;;;5036533;28;19916;-89
2021/01/18 03:17:54;;;;;;;;;;;1.70;99.90;;;;;;5036058;28;19913;-87
2021/01/18 03:20:23;;;;;;;;;;;1.70;99.90;;;;;;5036701;28;19959;-86
2021/01/18 03:22:48;;;;;;;;;;;1.70;99.90;;;;;;5035683;28;19908;-86
2021/01/18 03:25:14;;;;;;;;;;;1.70;99.90;;;;;;5028421;28;20003;-88
2021/01/18 03:27:53;;;;;;;;;;;1.70;99.90;;;;;;5162406;23;20383;-89
2021/01/18 03:30:21;;;;;;;;;;;1.70;99.90;;;;;;5074256;28;19908;-88
2021/01/18 03:32:50;;;;;;;;;;;1.70;99.90;;;;;;5055761;28;19944;-88
2021/01/18 03:35:19;;;;;;;;;;;1.70;99.90;;;;;;5056365;28;19908;-88
2021/01/18 03:37:50;;;;;;;;;;;1.70;99.90;;;;;;5055567;28;19912;-88
2021/01/18 03:40:16;;;;;;;;;;;1.70;99.90;;;;;;5167947;22;19931;-88
2021/01/18 03:42:41;;;;;;;;;;;1.70;99.90;;;;;;5056997;28;19908;-89
2021/01/18 03:45:07;;;;;;;;;;;1.70;99.90;;;;;;5056980;28;20396;-88
2021/01/18 03:47:33;;;;;;;;;;;1.70;99.90;;;;;;5057774;28;20271;-88
2021/01/18 03:49:58;;;;;;;;;;;1.70;99.90;;;;;;5057208;28;19916;-88
2021/01/18 03:52:24;;;;;;;;;;;1.70;99.90;;;;;;5073488;28;19909;-89
2021/01/18 03:54:49;;;;;;;;;;;1.70;99.90;;;;;;5055950;28;20420;-88
2021/01/18 03:57:15;;;;;;;;;;;1.70;99.90;;;;;;5055196;28;19963;-88
2021/01/18 03:59:43;;;;;;;;;;;1.70;99.90;;;;;;5055753;28;19920;-89
2021/01/18 04:02:09;;;;;;;;;;;1.60;99.90;;;;;;5055475;28;19908;-89
2021/01/18 04:07:18;;;;;;;;;;;1.70;99.90;;;;;;5085222;22;19929;-87
2021/01/18 04:09:44;;;;;;;;;;;1.60;99.90;;;;;;5032953;28;20490;-87
2021/01/18 04:12:09;;;;;;;;;;;1.60;99.90;;;;;;5043301;28;19951;-87
2021/01/18 04:14:35;;;;;;;;;;;1.60;99.90;;;;;;5034596;28;19997;-87
2021/01/18 04:17:00;;;;;;;;;;;1.60;99.90;;;;;;5029365;28;19909;-87
2021/01/18 04:19:26;;;;;;;;;;;1.60;99.90;;;;;;5032586;28;19917;-88
2021/01/18 04:24:41;;;;;;;;;;;1.60;99.90;;;;;;5070869;27;2377728;-87
2021/01/18 04:27:07;;;;;;;;;;;1.60;99.90;;;;;;5139780;27;19912;-86
2021/01/18 04:29:33;;;;;;;;;;;1.60;99.90;;;;;;5149120;27;19907;-87
2021/01/18 04:31:58;;;;;;;;;;;1.60;99.90;;;;;;5155531;27;19906;-86
2021/01/18 04:34:24;;;;;;;;;;;1.60;99.90;;;;;;5140052;27;19912;-87
2021/01/18 04:36:49;;;;;;;;;;;1.60;99.90;;;;;;5155262;27;19908;-86
2021/01/18 04:39:15;;;;;;;;;;;1.60;99.90;;;;;;5141300;27;19928;-86
2021/01/18 04:41:42;;;;;;;;;;;1.60;99.90;;;;;;5153932;27;19998;-86
2021/01/18 04:44:08;;;;;;;;;;;1.60;99.90;;;;;;5142736;27;19912;-86
2021/01/18 04:46:41;;;;;;;;;;;1.60;99.90;;;;;;5151379;27;20956;-86
2021/01/18 04:49:07;;;;;;;;;;;1.60;99.90;;;;;;5154763;27;19918;-86
2021/01/18 04:51:44;;;;;;;;;;;1.60;99.90;;;;;;5152831;27;19907;-88
2021/01/18 04:54:17;;;;;;;;;;;1.50;99.90;;;;;;5134068;27;19976;-86
2021/01/18 04:57:02;;;;;;;;;;;1.60;99.90;;;;;;5235344;22;19931;-85
2021/01/18 04:59:30;;;;;;;;;;;1.60;99.90;;;;;;5069142;28;19909;-86
2021/01/18 05:02:05;;;;;;;;;;;1.60;99.90;;;;;;5194795;22;19928;-89
2021/01/18 05:04:50;;;;;;;;;;;1.60;99.90;;;;;;5360852;22;19925;-86
2021/01/18 05:07:34;;;;;;;;;;;1.70;99.90;;;;;;5065687;28;20264;-86
2021/01/18 05:10:04;;;;;;;;;;;1.60;99.90;;;;;;5032505;28;19909;-86
2021/01/18 05:12:30;;;;;;;;;;;1.60;99.90;;;;;;5065762;28;20006;-86
2021/01/18 05:14:57;;;;;;;;;;;1.60;99.90;;;;;;5032201;28;20064;-86
2021/01/18 05:17:38;;;;;;;;;;;1.60;99.90;;;;;;5065682;28;19916;-86
2021/01/18 05:20:04;;;;;;;;;;;1.60;99.90;;;;;;5043275;28;19912;-85
2021/01/18 05:22:29;;;;;;;;;;;1.60;99.90;;;;;;5048495;28;20287;-86
2021/01/18 05:24:57;;;;;;;;;;;1.60;99.90;;;;;;5151496;22;19925;-88
2021/01/18 05:27:23;;;;;;;;;;;1.60;99.90;;;;;;5027249;28;20035;-88
2021/01/18 05:29:54;;;;;;;;;;;1.60;99.90;;;;;;5030225;28;20304;-88
2021/01/18 05:32:23;;;;;;;;;;;1.60;99.90;;;;;;5026421;28;20048;-89
2021/01/18 05:34:52;;;;;;;;;;;1.60;99.90;;;;;;5012984;28;19916;-88
2021/01/18 05:37:17;;;;;;;;;;;1.60;99.90;;;;;;5019004;28;20015;-89
2021/01/18 05:39:43;;;;;;;;;;;1.50;99.90;;;;;;5005046;28;20352;-89
2021/01/18 05:42:18;;;;;;;;;;;1.50;99.90;;;;;;5007900;28;19958;-89
2021/01/18 05:44:47;;;;;;;;;;;1.50;99.90;;;;;;5003436;28;19941;-89
2021/01/18 05:47:15;;;;;;;;;;;1.60;99.90;;;;;;5007763;28;19928;-89
2021/01/18 05:49:44;;;;;;;;;;;1.60;99.90;;;;;;5015776;28;19909;-89
2021/01/18 05:52:22;;;;;;;;;;;1.60;99.90;;;;;;5018702;28;20279;-89
2021/01/18 05:54:48;;;;;;;;;;;1.60;99.90;;;;;;5036212;28;19909;-89
2021/01/18 05:57:15;;;;;;;;;;;1.60;99.90;;;;;;5018520;28;19917;-89
2021/01/18 05:59:41;;;;;;;;;;;1.60;99.90;;;;;;5004411;28;20388;-89
2021/01/18 06:02:09;;;;;;;;;;;1.60;99.90;;;;;;5027083;28;19909;-89
2021/01/18 06:04:37;;;;;;;;;;;1.60;99.90;;;;;;5036377;28;19924;-88
2021/01/18 06:07:05;;;;;;;;;;;1.60;99.90;;;;;;5031601;28;19929;-89
2021/01/18 06:09:44;;;;;;;;;;;1.60;99.90;;;;;;5116883;22;19940;-86
2021/01/18 06:12:23;;;;;;;;;;;1.60;99.90;;;;;;5027749;28;19921;-86
2021/01/18 06:15:11;;;;;;;;;;;1.60;99.90;;;;;;5165436;22;19925;-87
2021/01/18 06:17:37;;;;;;;;;;;1.60;99.90;;;;;;5054688;28;19948;-89
2021/01/18 06:20:05;;;;;;;;;;;1.70;99.90;;;;;;5043001;28;19928;-88
2021/01/18 06:22:32;;;;;;;;;;;1.70;99.90;;;;;;5052192;28;20326;-88
2021/01/18 06:25:10;;;;;;;;;;;1.60;99.90;;;;;;5054070;28;19913;-89
2021/01/18 06:27:38;;;;;;;;;;;1.70;99.90;;;;;;5054674;28;20007;-89
2021/01/18 06:30:04;;;;;;;;;;;1.70;99.90;;;;;;5054258;28;19920;-89
2021/01/18 06:32:30;;;;;;;;;;;1.70;99.90;;;;;;5054311;28;19909;-89
2021/01/18 06:34:56;;;;;;;;;;;1.70;99.90;;;;;;5053450;28;19919;-88
2021/01/18 06:37:22;;;;;;;;;;;1.60;99.90;;;;;;5049295;28;19909;-89
2021/01/18 06:39:55;;;;;;;;;;;1.60;99.90;;;;;;5137786;23;19926;-87
2021/01/18 06:42:20;;;;;;;;;;;1.60;99.90;;;;;;5010680;28;19913;-86
2021/01/18 06:44:46;;;;;;;;;;;1.70;99.90;;;;;;5014448;28;19914;-87
2021/01/18 06:47:31;;;;;;;;;;;1.70;99.90;;;;;;5016179;28;20303;-85
2021/01/18 06:49:58;;;;;;;;;;;1.70;99.90;;;;;;5016553;28;19940;-86
2021/01/18 06:52:27;;;;;;;;;;;1.70;99.90;;;;;;5017539;28;19913;-87
2021/01/18 06:55:00;;;;;;;;;;;1.70;99.90;;;;;;5014136;28;19955;-88
2021/01/18 06:57:28;;;;;;;;;;;1.70;99.90;;;;;;5029299;28;19996;-86
2021/01/18 06:59:57;;;;;;;;;;;1.70;99.90;;;;;;5016685;28;19953;-86
2021/01/18 07:02:27;;;;;;;;;;;1.70;99.90;;;;;;5016597;28;19948;-86
2021/01/18 07:05:04;;;;;;;;;;;1.70;99.90;;;;;;5016645;28;19964;-87
2021/01/18 07:07:32;;;;;;;;;;;1.70;99.90;;;;;;5013907;28;19917;-87
2021/01/18 07:09:59;;;;;;;;;;;1.70;99.90;;;;;;5017006;28;19971;-86
2021/01/18 07:12:25;;;;;;;;;;;1.70;99.90;;;;;;5017049;28;19913;-86
2021/01/18 07:14:56;;;;;;;;;;;1.70;99.90;;;;;;5016800;28;19952;-85
2021/01/18 07:17:28;;;;;;;;;;;1.70;99.90;;;;;;5010154;28;19920;-85
2021/01/18 07:19:58;;;;;;;;;;;1.70;99.90;;;;;;5156452;22;19932;-86
2021/01/18 07:25:10;;;;;;;;;;;1.70;99.90;;;;;;5083279;22;19932;-88
2021/01/18 07:27:44;;;;;;;;;;;1.70;99.90;;;;;;5029014;28;19914;-89
2021/01/18 07:30:17;;;;;;;;;;;1.80;99.90;;;;;;5029121;28;19913;-87
2021/01/18 07:32:45;;;;;;;;;;;1.80;99.90;;;;;;5029472;28;19913;-88
2021/01/18 07:35:14;;;;;;;;;;;1.80;99.90;;;;;;5033538;28;19955;-88
2021/01/18 07:37:41;;;;;;;;;;;1.80;99.90;;;;;;5029250;28;19913;-88
2021/01/18 10:16:57;;;;;;;;;;;3.00;99.90;;;;;;5018207;28;19937;-85
2021/01/18 10:19:25;;;;;;;;;;;3.00;99.90;;;;;;5029493;28;19917;-87
2021/01/18 10:21:51;;;;;;;;;;;3.00;99.90;;;;;;5029645;28;19941;-85
2021/01/18 10:24:24;;;;;;;;;;;3.00;99.90;;;;;;5029752;28;19924;-86
2021/01/18 10:26:50;;;;;;;;;;;3.10;99.90;;;;;;5030438;28;19921;-87
2021/01/18 10:29:22;;;;;;;;;;;3.10;99.90;;;;;;5031087;28;19909;-85
2021/01/18 10:31:51;;;;;;;;;;;3.10;99.90;;;;;;5030604;28;20316;-86
2021/01/18 10:34:19;;;;;;;;;;;3.20;99.90;;;;;;5030187;28;19913;-86
2021/01/18 10:36:48;;;;;;;;;;;3.30;99.90;;;;;;5020512;28;20368;-85
2021/01/18 10:39:43;;;;;;;;;;;3.40;99.90;;;;;;5013842;28;20280;-87
2021/01/18 10:42:12;;;;;;;;;;;3.50;99.90;;;;;;5000475;28;19913;-86
2021/01/18 10:44:58;;;;;;;;;;;3.60;99.90;;;;;;5013331;28;19948;-86
2021/01/18 10:47:25;;;;;;;;;;;3.60;99.90;;;;;;5024375;28;19925;-87
2021/01/18 10:49:54;;;;;;;;;;;3.60;99.90;;;;;;5031183;28;20001;-86
2021/01/18 10:52:30;;;;;;;;;;;3.60;99.90;;;;;;5013822;28;19953;-86
2021/01/18 10:55:00;;;;;;;;;;;3.60;99.90;;;;;;5023915;28;19916;-86
2021/01/18 10:57:27;;;;;;;;;;;3.60;99.90;;;;;;5013651;28;19913;-86
2021/01/18 11:00:12;;;;;;;;;;;3.60;99.90;;;;;;5028913;28;19913;-88
2021/01/18 11:57:17;;;;;;;;;;;3.70;99.90;;;;;;5067190;28;19931;-87
2021/01/18 11:59:43;;;;;;;;;;;3.70;99.90;;;;;;5066069;28;19924;-87
2021/01/18 12:02:09;;;;;;;;;;;3.70;99.90;;;;;;5059698;28;19912;-86
2021/01/18 12:04:34;;;;;;;;;;;3.70;99.90;;;;;;5052180;28;19952;-88
2021/01/18 12:07:00;;;;;;;;;;;3.70;99.90;;;;;;5062603;28;19912;-88
2021/01/18 12:09:25;;;;;;;;;;;3.70;99.90;;;;;;5051773;28;19919;-86
2021/01/18 12:11:52;;;;;;;;;;;3.70;99.90;;;;;;5042351;28;20201;-86
2021/01/18 12:14:17;;;;;;;;;;;3.70;99.90;;;;;;5041155;28;19913;-86
2021/01/18 12:16:43;;;;;;;;;;;3.70;99.90;;;;;;5031977;28;19974;-86
2021/01/18 12:19:09;;;;;;;;;;;3.80;99.90;;;;;;5032361;28;20265;-86
2021/01/18 12:21:41;;;;;;;;;;;3.70;99.90;;;;;;5031648;28;19912;-86
2021/01/18 12:24:09;;;;;;;;;;;3.80;99.90;;;;;;5031856;28;19942;-86
2021/01/18 12:26:35;;;;;;;;;;;3.70;99.90;;;;;;5031956;28;19944;-86
2021/01/18 12:29:00;;;;;;;;;;;3.70;99.90;;;;;;5049671;28;19956;-86
2021/01/18 12:31:26;;;;;;;;;;;3.70;99.90;;;;;;5031668;28;20015;-86
2021/01/18 12:33:53;;;;;;;;;;;3.70;99.90;;;;;;5031467;28;20456;-86
2021/01/18 12:36:19;;;;;;;;;;;3.80;99.90;;;;;;5031617;28;19952;-86
2021/01/18 12:38:44;;;;;;;;;;;3.80;99.90;;;;;;5031338;28;20388;-87
2021/01/18 12:41:13;;;;;;;;;;;3.80;99.90;;;;;;5030794;28;19912;-87
2021/01/18 12:43:38;;;;;;;;;;;3.80;99.90;;;;;;5031263;28;20333;-86
2021/01/18 12:46:04;;;;;;;;;;;3.80;99.90;;;;;;5034456;28;19928;-87
2021/01/18 12:48:32;;;;;;;;;;;3.80;99.90;;;;;;5035735;28;20110;-87
2021/01/18 12:53:44;;;;;;;;;;;3.80;99.90;;;;;;5071799;28;19939;-89
2021/01/18 12:56:30;;;;;;;;;;;3.80;99.90;;;;;;5055428;28;19916;-89
2021/01/18 12:58:58;;;;;;;;;;;3.80;99.90;;;;;;5054704;28;19912;-88
2021/01/18 13:01:30;;;;;;;;;;;3.80;99.90;;;;;;5055119;28;19912;-89
2021/01/18 13:04:00;;;;;;;;;;;3.80;99.90;;;;;;5055362;28;19954;-89
2021/01/18 13:06:37;;;;;;;;;;;3.80;99.90;;;;;;5055343;28;19916;-88
2021/01/18 13:09:04;;;;;;;;;;;3.70;99.90;;;;;;5055016;28;19912;-88
2021/01/18 13:11:29;;;;;;;;;;;3.70;99.90;;;;;;5055672;28;20278;-88
2021/01/18 13:13:55;;;;;;;;;;;3.70;99.90;;;;;;5055441;28;19919;-88
2021/01/18 13:16:23;;;;;;;;;;;3.70;99.90;;;;;;5055269;28;20105;-87
2021/01/18 13:18:49;;;;;;;;;;;3.60;99.90;;;;;;5054974;28;19912;-86
2021/01/18 13:21:18;;;;;;;;;;;3.60;99.90;;;;;;5055025;28;19919;-89
2021/01/18 13:23:52;;;;;;;;;;;3.60;99.90;;;;;;5055279;28;20394;-89
2021/01/18 13:26:19;;;;;;;;;;;3.60;99.90;;;;;;5055440;28;19923;-88
2021/01/18 13:28:45;;;;;;;;;;;3.60;99.90;;;;;;5054672;28;19927;-88
2021/01/18 13:31:11;;;;;;;;;;;3.50;99.90;;;;;;5054200;28;19912;-88
2021/01/18 13:33:38;;;;;;;;;;;3.50;99.90;;;;;;5055038;28;20271;-88
2021/01/18 13:36:09;;;;;;;;;;;3.50;99.90;;;;;;5054744;28;19913;-88
2021/01/18 13:38:34;;;;;;;;;;;3.50;99.90;;;;;;5072696;28;19927;-89
2021/01/18 13:41:02;;;;;;;;;;;3.50;99.90;;;;;;5042974;28;19912;-88
2021/01/18 13:43:28;;;;;;;;;;;3.50;99.90;;;;;;5034993;28;19917;-88
2021/01/18 13:45:53;;;;;;;;;;;3.50;99.90;;;;;;5034713;28;19996;-88
2021/01/18 13:48:24;;;;;;;;;;;3.60;99.90;;;;;;5034405;28;19952;-88
2021/01/18 13:50:49;;;;;;;;;;;3.60;99.90;;;;;;5034721;28;20010;-88
2021/01/18 13:53:17;;;;;;;;;;;3.60;99.90;;;;;;5034406;28;19967;-88
2021/01/18 13:55:43;;;;;;;;;;;3.60;99.90;;;;;;5033887;28;20009;-88
2021/01/18 13:58:08;;;;;;;;;;;3.60;99.90;;;;;;5052638;28;20015;-88
2021/01/18 14:00:34;;;;;;;;;;;3.60;99.90;;;;;;5034752;28;20323;-86
2021/01/18 14:02:59;;;;;;;;;;;3.60;99.90;;;;;;5034209;28;19939;-86
2021/01/18 14:05:25;;;;;;;;;;;3.70;99.90;;;;;;5034932;28;19917;-86
2021/01/18 14:07:55;;;;;;;;;;;3.70;99.90;;;;;;5054568;28;19922;-86
2021/01/18 14:10:20;;;;;;;;;;;3.70;99.90;;;;;;5046366;28;19913;-86
2021/01/18 14:12:49;;;;;;;;;;;3.70;99.90;;;;;;5047885;28;20062;-86
2021/01/18 14:15:15;;;;;;;;;;;3.70;99.90;;;;;;5034785;28;19913;-86
2021/01/18 14:17:41;;;;;;;;;;;3.60;99.90;;;;;;5051153;28;19962;-86
2021/01/18 14:20:09;;;;;;;;;;;3.60;99.90;;;;;;5472528;22;20031;-87
2021/01/18 14:22:37;;;;;;;;;;;3.60;99.90;;;;;;5053970;28;19922;-87
2021/01/18 14:27:44;;;;;;;;;;;3.60;99.90;;;;;;5340881;22;19932;-87
2021/01/18 14:30:11;;;;;;;;;;;3.50;99.90;;;;;;5175299;22;19928;-90
2021/01/18 14:32:39;;;;;;;;;;;3.60;99.90;;;;;;5338932;22;19923;-89
2021/01/18 14:35:08;;;;;;;;;;;3.60;99.90;;;;;;5053457;28;19979;-90
2021/01/18 14:37:33;;;;;;;;;;;3.50;99.90;;;;;;5165937;22;19935;-89
2021/01/18 14:40:01;;;;;;;;;;;3.60;99.90;;;;;;5053366;28;20654;-90
2021/01/18 14:42:26;;;;;;;;;;;3.50;99.90;;;;;;5053525;28;20332;-89
2021/01/18 14:44:54;;;;;;;;;;;3.50;99.90;;;;;;5053872;28;19979;-89
2021/01/18 14:47:20;;;;;;;;;;;3.50;99.90;;;;;;5053687;28;20350;-89
2021/01/18 14:49:45;;;;;;;;;;;3.50;99.90;;;;;;5055944;28;19971;-89
2021/01/18 14:52:11;;;;;;;;;;;3.50;99.90;;;;;;5163777;22;19936;-88
2021/01/18 14:54:36;;;;;;;;;;;3.40;99.90;;;;;;5173554;22;19954;-89
2021/01/18 14:57:05;;;;;;;;;;;3.50;99.90;;;;;;5091630;28;19958;-89
2021/01/18 14:59:31;;;;;;;;;;;3.50;99.90;;;;;;5073480;28;19942;-90
2021/01/18 15:01:57;;;;;;;;;;;3.50;99.90;;;;;;5073513;28;19908;-90
2021/01/18 15:04:22;;;;;;;;;;;3.50;99.90;;;;;;5092036;28;20344;-89
2021/01/18 15:06:51;;;;;;;;;;;3.40;99.90;;;;;;5072656;28;19939;-89
2021/01/18 15:09:17;;;;;;;;;;;3.40;99.90;;;;;;5091021;28;19912;-90
2021/01/18 15:11:45;;;;;;;;;;;3.30;99.90;;;;;;5072953;28;20290;-89
2021/01/18 15:14:17;;;;;;;;;;;3.30;99.90;;;;;;5091312;28;19990;-89
2021/01/18 15:16:45;;;;;;;;;;;3.30;99.90;;;;;;5073256;28;20494;-89
2021/01/18 15:19:12;;;;;;;;;;;3.20;99.90;;;;;;5073202;28;19916;-88
2021/01/18 15:21:37;;;;;;;;;;;3.20;99.90;;;;;;5072662;28;20359;-88
2021/01/18 15:24:06;;;;;;;;;;;3.10;99.90;;;;;;5072846;28;19999;-89
2021/01/18 15:26:33;;;;;;;;;;;3.10;99.90;;;;;;5072636;28;19977;-89
2021/01/18 15:28:59;;;;;;;;;;;3.10;99.90;;;;;;5090533;28;20546;-89
2021/01/18 15:31:27;;;;;;;;;;;3.00;99.90;;;;;;5072736;28;19912;-89
2021/01/18 15:33:53;;;;;;;;;;;3.10;99.90;;;;;;5072531;28;19965;-89
2021/01/18 15:36:21;;;;;;;;;;;3.00;99.90;;;;;;5072478;28;19958;-88
2021/01/18 15:38:47;;;;;;;;;;;3.00;99.90;;;;;;5072744;28;19954;-88
2021/01/18 15:41:16;;;;;;;;;;;3.00;99.90;;;;;;5072745;28;19912;-89
2021/01/18 15:43:43;;;;;;;;;;;3.00;99.90;;;;;;5072251;28;19935;-88
2021/01/18 15:46:10;;;;;;;;;;;3.00;99.90;;;;;;5061268;28;19930;-88
2021/01/18 15:48:35;;;;;;;;;;;2.90;99.90;;;;;;5061239;28;19912;-89
2021/01/18 15:51:03;;;;;;;;;;;2.90;99.90;;;;;;5061345;28;19961;-88
2021/01/18 15:53:29;;;;;;;;;;;2.90;99.90;;;;;;5062980;28;20370;-90
2021/01/18 15:55:55;;;;;;;;;;;2.90;99.90;;;;;;5061557;28;19924;-88
2021/01/18 15:58:20;;;;;;;;;;;2.90;99.90;;;;;;5062913;28;19916;-87
2021/01/18 16:00:50;;;;;;;;;;;2.90;99.90;;;;;;5069110;28;20277;-87
2021/01/18 16:03:18;;;;;;;;;;;2.90;99.90;;;;;;5072448;28;19969;-89
2021/01/18 16:05:44;;;;;;;;;;;2.80;99.90;;;;;;5072822;28;19923;-88
2021/01/18 16:08:09;;;;;;;;;;;2.80;99.90;;;;;;5071875;28;19916;-89
2021/01/18 16:10:35;;;;;;;;;;;2.80;99.90;;;;;;5072061;28;19961;-88
2021/01/18 16:13:03;;;;;;;;;;;2.80;99.90;;;;;;5066749;28;19961;-88
2021/01/18 16:15:29;;;;;;;;;;;2.80;99.90;;;;;;5069582;28;20092;-87
2021/01/18 16:17:59;;;;;;;;;;;2.80;99.90;;;;;;5070431;28;19939;-88
2021/01/18 16:20:25;;;;;;;;;;;2.80;99.90;;;;;;5061659;28;19919;-89
2021/01/18 16:22:51;;;;;;;;;;;2.70;99.90;;;;;;5065629;28;20007;-89
2021/01/18 16:27:53;;;;;;;;;;;2.70;99.90;;;;;;5075555;22;20307;-88
2021/01/18 16:30:25;;;;;;;;;;;2.70;99.90;;;;;;5015706;28;19964;-87
2021/01/18 16:32:51;;;;;;;;;;;2.70;99.90;;;;;;5013506;28;19909;-87
2021/01/18 16:35:19;;;;;;;;;;;2.80;99.90;;;;;;5014915;28;19963;-87
2021/01/18 16:37:47;;;;;;;;;;;2.80;99.90;;;;;;5143801;23;19928;-87
2021/01/18 16:40:17;;;;;;;;;;;2.80;99.90;;;;;;5053274;28;19912;-87
2021/01/18 16:42:42;;;;;;;;;;;2.70;99.90;;;;;;5047809;28;19940;-87
2021/01/18 16:45:08;;;;;;;;;;;2.70;99.90;;;;;;5159608;23;20406;-87
2021/01/18 16:47:40;;;;;;;;;;;2.70;99.90;;;;;;5051996;28;19916;-87
2021/01/18 16:50:09;;;;;;;;;;;2.70;99.90;;;;;;5054952;28;19971;-86
2021/01/18 16:52:37;;;;;;;;;;;2.60;99.90;;;;;;5039382;28;19920;-87
2021/01/18 16:55:02;;;;;;;;;;;2.70;99.90;;;;;;5047276;28;20324;-87
2021/01/18 16:57:31;;;;;;;;;;;2.60;99.90;;;;;;5063177;28;19918;-87
2021/01/18 16:59:56;;;;;;;;;;;2.60;99.90;;;;;;5065292;28;20007;-87
2021/01/18 17:02:24;;;;;;;;;;;2.60;99.90;;;;;;5048643;28;19995;-87
2021/01/18 17:04:49;;;;;;;;;;;2.60;99.90;;;;;;5054260;28;19916;-87
2021/01/18 17:07:15;;;;;;;;;;;2.60;99.90;;;;;;5047928;28;19947;-86
2021/01/18 17:09:43;;;;;;;;;;;2.50;99.90;;;;;;5053102;28;19959;-87
2021/01/18 17:12:09;;;;;;;;;;;2.60;99.90;;;;;;5050172;28;20004;-87
2021/01/18 17:14:34;;;;;;;;;;;2.50;99.90;;;;;;5052465;28;20039;-86
2021/01/18 17:17:01;;;;;;;;;;;2.50;99.90;;;;;;5063883;28;20007;-87
2021/01/18 17:19:29;;;;;;;;;;;2.50;99.90;;;;;;5051012;28;19912;-86
2021/01/18 17:21:58;;;;;;;;;;;2.50;99.90;;;;;;5047983;28;19966;-87
2021/01/18 17:24:24;;;;;;;;;;;2.50;99.90;;;;;;5068368;28;19924;-87
2021/01/18 17:26:50;;;;;;;;;;;2.50;99.90;;;;;;5051639;28;20589;-87
2021/01/18 17:29:17;;;;;;;;;;;2.50;99.90;;;;;;5053267;28;19912;-86
2021/01/18 17:38:24;;;;;;;;;;;2.40;99.90;;;;;;5053952;22;19936;-87
2021/01/18 17:40:51;;;;;;;;;;;2.50;99.90;;;;;;5057625;28;19931;-86
2021/01/18 17:43:17;;;;;;;;;;;2.50;99.90;;;;;;5053859;28;20299;-87
2021/01/18 17:45:45;;;;;;;;;;;2.40;99.90;;;;;;5034913;28;19912;-87
2021/01/18 17:48:12;;;;;;;;;;;2.40;99.90;;;;;;5036955;28;20011;-87
2021/01/18 17:50:38;;;;;;;;;;;2.50;99.90;;;;;;5048757;28;20384;-87
2021/01/18 17:53:05;;;;;;;;;;;2.40;99.90;;;;;;5047613;28;19936;-87
2021/01/18 17:55:34;;;;;;;;;;;2.40;99.90;;;;;;5048665;28;20343;-87
2021/01/18 17:58:00;;;;;;;;;;;2.50;99.90;;;;;;5048095;28;19963;-87
2021/01/18 18:00:27;;;;;;;;;;;2.50;99.90;;;;;;5050322;28;19908;-87
2021/01/18 18:02:53;;;;;;;;;;;2.50;99.90;;;;;;5043210;28;19909;-87
2021/01/18 18:05:19;;;;;;;;;;;2.50;99.90;;;;;;5033169;28;19920;-86
2021/01/18 18:07:45;;;;;;;;;;;2.50;99.90;;;;;;5029338;28;19917;-87
2021/01/18 18:10:11;;;;;;;;;;;2.40;99.90;;;;;;5050789;28;20425;-86
2021/01/18 18:12:36;;;;;;;;;;;2.40;99.90;;;;;;5050881;28;19913;-87
2021/01/18 18:15:03;;;;;;;;;;;2.50;99.90;;;;;;5030899;28;20284;-86
2021/01/18 18:17:28;;;;;;;;;;;2.40;99.90;;;;;;5049904;28;20000;-86
2021/01/18 18:19:54;;;;;;;;;;;2.50;99.90;;;;;;5031125;28;20100;-87
2021/01/18 18:22:22;;;;;;;;;;;2.50;99.90;;;;;;5044756;28;19913;-87
2021/01/18 18:24:48;;;;;;;;;;;2.50;99.90;;;;;;5045521;28;20075;-87
2021/01/18 18:27:16;;;;;;;;;;;2.50;99.90;;;;;;5026324;28;20224;-86
2021/01/18 18:29:44;;;;;;;;;;;2.50;99.90;;;;;;5034122;28;20356;-87
2021/01/18 18:32:10;;;;;;;;;;;2.50;99.90;;;;;;5051025;28;19963;-88
2021/01/18 18:34:35;;;;;;;;;;;2.50;99.90;;;;;;5056466;28;19976;-87
2021/01/18 18:37:05;;;;;;;;;;;2.50;99.90;;;;;;5036371;28;20438;-86
2021/01/18 18:39:31;;;;;;;;;;;2.50;99.90;;;;;;5060119;28;19931;-86